Ripley, Canada
Current Conditions -  °F | °C
As of 8:00 AM on Friday 24 Oct 2014 (Local Time) from CYVV Reporting Station
Scattered Clouds Scattered Clouds  
Wind Chill: 29°   Ceiling: Unl
Heat Index: 34°   Visibility: 12mi
Dew Point: 34°   Wind: 6mph
Humidity: 100%   Direction: 170°S
Pressure: 30.04"   Gusts: NA
Location:  44.07°N, 81.58°W
Report Text: CYVV 241200Z 17005KT 12SM SCT040 SCT250 01/01 A3004 RMK SC3CI0SLP180
Loading
Personal Weather Stations






























Interactive Weather Map
Tropical Storm Tracking
New forecast layout! Learn more

10-Day Weather Forecast

Advertisements
Track Severe Weather on mobile